createdAt,value
2024-03-15T00:01:01.015Z,7.37
2024-03-15T00:03:39.071Z,7.35
2024-03-15T00:06:10.819Z,7.36
2024-03-15T00:08:42.077Z,7.35
2024-03-15T00:11:12.580Z,7.38
2024-03-15T00:13:46.817Z,7.36
2024-03-15T00:16:20.530Z,7.35
2024-03-15T00:18:50.684Z,7.36
2024-03-15T00:21:20.746Z,7.33
2024-03-15T00:23:52.967Z,7.32
2024-03-15T00:26:24.455Z,7.33
2024-03-15T00:28:56.474Z,7.32
2024-03-15T00:31:27.276Z,7.29
2024-03-15T00:33:57.317Z,7.25
2024-03-15T00:36:37.929Z,7.26
2024-03-15T00:39:15.043Z,7.26
2024-03-15T00:41:46.719Z,7.28
2024-03-15T00:44:19.924Z,7.29
2024-03-15T00:46:49.872Z,7.30
2024-03-15T00:49:20.507Z,7.30
2024-03-15T00:51:52.364Z,7.30
2024-03-15T00:54:24.312Z,7.30
2024-03-15T00:56:54.557Z,7.33
2024-03-15T00:59:24.731Z,7.33
2024-03-15T01:01:54.549Z,7.33
2024-03-15T01:04:23.793Z,7.34
2024-03-15T01:06:55.282Z,7.37
2024-03-15T01:09:25.392Z,7.39
2024-03-15T01:11:55.117Z,7.43
2024-03-15T01:14:26.057Z,7.45
2024-03-15T01:16:57.421Z,7.47
2024-03-15T01:19:34.856Z,7.50
2024-03-15T01:22:09.667Z,7.53
2024-03-15T01:24:41.231Z,7.58
2024-03-15T01:27:11.526Z,7.58
2024-03-15T01:29:41.070Z,7.58
2024-03-15T01:32:12.271Z,7.57
2024-03-15T01:34:44.190Z,7.58
2024-03-15T01:37:14.381Z,7.61
2024-03-15T01:39:46.549Z,7.61
2024-03-15T01:42:19.708Z,7.61
2024-03-15T01:44:52.260Z,7.61
2024-03-15T01:47:27.952Z,7.61
2024-03-15T01:49:58.426Z,7.62
2024-03-15T01:52:33.454Z,7.62
2024-03-15T01:55:03.970Z,7.63
2024-03-15T01:57:35.414Z,7.61
2024-03-15T02:00:06.480Z,7.62
2024-03-15T02:02:37.193Z,7.62
2024-03-15T02:05:06.791Z,7.63
2024-03-15T02:07:35.988Z,7.62
2024-03-15T02:10:12.152Z,7.60
2024-03-15T02:12:41.544Z,7.58
2024-03-15T02:15:14.607Z,7.56
2024-03-15T02:17:44.228Z,7.56
2024-03-15T02:20:17.152Z,7.58
2024-03-15T02:22:46.473Z,7.58
2024-03-15T02:25:15.732Z,7.56
2024-03-15T02:27:45.434Z,7.54
2024-03-15T02:30:15.035Z,7.54
2024-03-15T02:32:44.458Z,7.55
2024-03-15T02:35:20.254Z,7.54
2024-03-15T02:37:57.336Z,7.50
2024-03-15T02:40:26.674Z,7.48
2024-03-15T02:42:56.166Z,7.46
2024-03-15T02:45:26.958Z,7.45
2024-03-15T02:47:56.421Z,7.43
2024-03-15T02:50:25.579Z,7.41
2024-03-15T02:52:54.642Z,7.39
2024-03-15T02:55:23.750Z,7.33
2024-03-15T02:57:53.023Z,7.30
2024-03-15T03:00:22.876Z,7.27
2024-03-15T03:02:54.738Z,7.24
2024-03-15T03:05:24.052Z,7.15
2024-03-15T03:07:53.366Z,7.09
2024-03-15T03:10:22.710Z,7.04
2024-03-15T03:12:52.027Z,6.98
2024-03-15T03:15:22.036Z,6.92
2024-03-15T03:17:52.972Z,6.87
2024-03-15T03:20:25.466Z,6.85
2024-03-15T03:22:55.250Z,6.80
2024-03-15T03:25:24.410Z,6.74
2024-03-15T03:27:53.685Z,6.67
2024-03-15T03:30:23.014Z,6.60
2024-03-15T03:32:53.765Z,6.55
2024-03-15T03:35:22.846Z,6.50
2024-03-15T03:37:52.003Z,6.45
2024-03-15T03:40:26.157Z,6.39
2024-03-15T03:42:56.230Z,6.30
2024-03-15T03:45:28.613Z,6.25
2024-03-15T03:47:59.183Z,6.22
2024-03-15T03:50:31.512Z,6.20
2024-03-15T03:53:01.395Z,6.16
2024-03-15T03:55:30.815Z,6.15
2024-03-15T03:58:00.451Z,6.14
2024-03-15T04:00:32.754Z,6.09
2024-03-15T04:03:04.164Z,6.04
2024-03-15T04:05:34.642Z,6.06
2024-03-15T04:08:05.916Z,6.05
2024-03-15T04:10:38.128Z,6.06
2024-03-15T04:13:08.964Z,6.06
2024-03-15T04:15:38.385Z,6.05
2024-03-15T04:18:08.376Z,6.02
2024-03-15T04:20:40.368Z,6.00
2024-03-15T04:23:11.109Z,5.99
2024-03-15T04:25:41.783Z,5.98
2024-03-15T04:28:12.477Z,5.94
2024-03-15T04:30:41.742Z,5.93
2024-03-15T04:33:11.123Z,5.90
2024-03-15T04:35:41.569Z,5.87
2024-03-15T04:38:10.788Z,5.84
2024-03-15T04:40:40.397Z,5.80
2024-03-15T04:43:12.251Z,5.77
2024-03-15T04:45:41.424Z,5.76
2024-03-15T04:48:11.330Z,5.75
2024-03-15T04:50:41.262Z,5.74
2024-03-15T04:53:11.243Z,5.71
2024-03-15T04:55:41.551Z,5.68
2024-03-15T04:58:13.192Z,5.62
2024-03-15T05:00:43.588Z,5.62
2024-03-15T05:03:13.820Z,5.60
2024-03-15T05:05:44.511Z,5.57
2024-03-15T05:08:14.936Z,5.54
2024-03-15T05:10:46.217Z,5.53
2024-03-15T05:13:17.167Z,5.51
2024-03-15T05:15:46.407Z,5.51
2024-03-15T05:18:15.677Z,5.47
2024-03-15T05:20:44.781Z,5.44
2024-03-15T05:23:13.893Z,5.42
2024-03-15T05:25:43.519Z,5.43
2024-03-15T05:28:13.114Z,5.41
2024-03-15T05:30:45.001Z,5.41
2024-03-15T05:33:14.513Z,5.39
2024-03-15T05:35:47.603Z,5.36
2024-03-15T05:38:17.107Z,5.35
2024-03-15T05:40:47.435Z,5.34
2024-03-15T05:43:18.037Z,5.35
2024-03-15T05:45:47.346Z,5.34
2024-03-15T05:48:16.637Z,5.35
2024-03-15T05:50:46.290Z,5.38
2024-03-15T05:53:16.380Z,5.40
2024-03-15T05:55:45.881Z,5.43
2024-03-15T05:58:14.984Z,5.44
2024-03-15T06:00:44.579Z,5.46
2024-03-15T06:03:13.618Z,5.49
2024-03-15T06:05:42.755Z,5.52
2024-03-15T06:08:11.842Z,5.55
2024-03-15T06:10:40.991Z,5.56
2024-03-15T06:13:10.758Z,5.59
2024-03-15T06:15:40.269Z,5.65
2024-03-15T06:18:09.463Z,5.71
2024-03-15T06:20:38.933Z,5.77
2024-03-15T06:23:08.073Z,5.81
2024-03-15T06:25:37.561Z,5.82
2024-03-15T06:28:09.824Z,5.86
2024-03-15T06:30:44.670Z,5.92
2024-03-15T06:33:15.138Z,5.97
2024-03-15T06:35:45.417Z,6.02
2024-03-15T06:38:29.061Z,6.04
2024-03-15T06:41:12.464Z,6.06
2024-03-15T06:43:46.780Z,6.10
2024-03-15T06:46:25.291Z,6.13
2024-03-15T06:49:01.473Z,6.15
2024-03-15T06:51:48.246Z,6.18
2024-03-15T06:54:17.514Z,6.23
2024-03-15T06:56:46.919Z,6.30
2024-03-15T06:59:16.305Z,6.40
2024-03-15T07:01:46.080Z,6.51
2024-03-15T07:04:16.055Z,6.65
2024-03-15T07:06:47.002Z,6.78
2024-03-15T07:09:18.655Z,6.92
2024-03-15T07:11:49.582Z,7.10
2024-03-15T07:14:19.394Z,7.29
2024-03-15T07:16:50.322Z,7.46
2024-03-15T07:19:20.560Z,7.60
2024-03-15T07:21:49.794Z,7.74
2024-03-15T07:24:19.008Z,7.89
2024-03-15T07:26:48.167Z,8.03
2024-03-15T07:29:17.346Z,8.16
2024-03-15T07:31:46.509Z,8.25
2024-03-15T07:34:15.986Z,8.29
2024-03-15T07:36:46.171Z,8.33
2024-03-15T07:39:16.594Z,8.44
2024-03-15T07:41:46.135Z,8.59
2024-03-15T07:44:16.312Z,8.72
2024-03-15T07:46:48.355Z,8.75
2024-03-15T07:49:17.551Z,8.79
2024-03-15T07:51:47.642Z,8.81
2024-03-15T07:54:16.987Z,8.80
2024-03-15T07:56:46.176Z,8.79
2024-03-15T07:59:15.347Z,8.92
2024-03-15T08:01:44.581Z,9.09
2024-03-15T08:04:15.441Z,9.26
2024-03-15T08:06:45.789Z,9.43
2024-03-15T08:09:16.843Z,9.60
2024-03-15T08:11:46.129Z,9.78
2024-03-15T08:14:15.298Z,9.89
2024-03-15T08:16:48.158Z,10.07
2024-03-15T08:19:17.729Z,10.25
2024-03-15T08:21:52.525Z,10.48
2024-03-15T08:24:22.944Z,10.67
2024-03-15T08:26:52.229Z,10.74
2024-03-15T08:29:22.636Z,10.96
2024-03-15T08:31:52.250Z,11.14
2024-03-15T08:34:23.111Z,11.23
2024-03-15T08:36:54.679Z,11.26
2024-03-15T08:39:25.984Z,11.34
2024-03-15T08:41:55.563Z,11.45
2024-03-15T08:44:25.858Z,11.49
2024-03-15T08:46:55.502Z,11.58
2024-03-15T08:49:27.478Z,11.70
2024-03-15T08:51:56.871Z,11.73
2024-03-15T08:54:26.287Z,11.65
2024-03-15T08:56:56.863Z,11.57
2024-03-15T08:59:26.065Z,11.54
2024-03-15T09:01:56.906Z,11.52
2024-03-15T09:04:27.017Z,11.58
2024-03-15T09:06:57.735Z,11.59
2024-03-15T09:09:33.847Z,11.63
2024-03-15T09:12:04.810Z,11.68
2024-03-15T09:14:36.587Z,11.70
2024-03-15T09:17:14.017Z,11.73
2024-03-15T09:19:44.016Z,11.86
2024-03-15T09:22:15.218Z,11.99
2024-03-15T09:24:44.530Z,12.18
2024-03-15T09:27:13.788Z,12.32
2024-03-15T09:29:48.461Z,12.59
2024-03-15T09:32:17.751Z,12.91
2024-03-15T09:34:52.365Z,13.12
2024-03-15T09:37:23.684Z,13.29
2024-03-15T09:39:57.160Z,13.48
2024-03-15T09:42:38.575Z,13.73
2024-03-15T09:45:15.473Z,13.96
2024-03-15T09:47:48.134Z,14.24
2024-03-15T09:50:17.755Z,14.56
2024-03-15T09:53:10.763Z,14.74
2024-03-15T09:55:54.908Z,14.82
2024-03-15T09:58:55.467Z,15.04
2024-03-15T10:01:39.503Z,15.21
2024-03-15T10:09:42.033Z,15.52
2024-03-15T10:13:02.378Z,15.24
2024-03-15T10:17:00.662Z,15.15
2024-03-15T10:19:37.020Z,15.35
2024-03-15T10:22:24.927Z,15.68
2024-03-15T10:25:09.677Z,16.17
2024-03-15T10:27:57.205Z,16.32
2024-03-15T10:31:21.051Z,16.33
2024-03-15T10:34:07.632Z,16.11
2024-03-15T10:37:00.793Z,15.85
2024-03-15T10:43:38.840Z,15.72
2024-03-15T10:46:40.282Z,15.98
2024-03-15T10:49:44.055Z,16.10
2024-03-15T10:52:14.652Z,16.10
2024-03-15T11:06:13.553Z,15.57
2024-03-15T11:09:03.948Z,15.28
2024-03-15T11:12:39.078Z,15.18
2024-03-15T11:15:30.587Z,15.15
2024-03-15T11:21:44.244Z,15.36
2024-03-15T11:24:34.180Z,15.37
2024-03-15T11:56:17.282Z,15.05
2024-03-15T12:13:23.079Z,14.59
2024-03-15T12:17:42.114Z,14.55
2024-03-15T13:02:49.527Z,15.12
2024-03-15T13:07:29.572Z,15.08
2024-03-15T13:27:33.370Z,15.64
2024-03-15T13:41:29.860Z,15.87
2024-03-15T15:50:07.182Z,16.30
2024-03-15T16:08:08.593Z,15.96
2024-03-15T16:10:48.901Z,15.84
2024-03-15T16:13:28.012Z,15.71
2024-03-15T16:16:48.242Z,15.58
2024-03-15T16:23:55.280Z,15.47
2024-03-15T16:54:13.799Z,14.49
2024-03-15T16:56:43.163Z,14.35
2024-03-15T16:59:12.482Z,14.21
2024-03-15T17:01:41.930Z,14.10
2024-03-15T17:04:12.436Z,14.06
2024-03-15T17:06:41.982Z,14.03
2024-03-15T17:09:14.426Z,13.95
2024-03-15T17:11:45.027Z,13.89
2024-03-15T17:14:14.473Z,13.88
2024-03-15T17:16:43.734Z,13.86
2024-03-15T17:19:13.000Z,13.83
2024-03-15T17:21:43.206Z,13.77
2024-03-15T17:24:16.116Z,13.74
2024-03-15T17:26:49.039Z,13.74
2024-03-15T17:29:18.240Z,13.71
2024-03-15T17:31:48.125Z,13.67
2024-03-15T17:34:17.460Z,13.66
2024-03-15T17:36:46.864Z,13.57
2024-03-15T17:39:16.425Z,13.49
2024-03-15T17:41:46.077Z,13.44
2024-03-15T17:44:15.272Z,13.36
2024-03-15T17:46:44.681Z,13.31
2024-03-15T17:49:14.429Z,13.25
2024-03-15T17:51:43.925Z,13.20
2024-03-15T17:54:13.610Z,13.15
2024-03-15T17:56:47.157Z,13.12
2024-03-15T17:59:16.351Z,13.06
2024-03-15T18:01:46.843Z,12.99
2024-03-15T18:04:16.062Z,12.92
2024-03-15T18:06:45.722Z,12.83
2024-03-15T18:09:14.889Z,12.75
2024-03-15T18:11:45.869Z,12.72
2024-03-15T18:14:15.106Z,12.73
2024-03-15T18:16:44.316Z,12.69
2024-03-15T18:19:13.652Z,12.60
2024-03-15T18:21:42.895Z,12.52
2024-03-15T18:24:12.338Z,12.45
2024-03-15T18:26:42.113Z,12.44
2024-03-15T18:29:11.243Z,12.43
2024-03-15T18:31:40.414Z,12.36
2024-03-15T18:34:10.267Z,12.32
2024-03-15T18:36:39.530Z,12.29
2024-03-15T18:39:09.764Z,12.27
2024-03-15T18:41:38.918Z,12.27
2024-03-15T18:44:23.583Z,12.26
2024-03-15T18:46:53.111Z,12.28
2024-03-15T18:49:22.352Z,12.24
2024-03-15T18:51:51.565Z,12.21
2024-03-15T18:54:21.306Z,12.21
2024-03-15T18:56:54.762Z,12.23
2024-03-15T18:59:31.104Z,12.24
2024-03-15T19:02:02.881Z,12.24
2024-03-15T19:04:32.453Z,12.17
2024-03-15T19:07:03.811Z,11.98
2024-03-15T19:09:33.200Z,11.83
2024-03-15T19:12:04.482Z,11.70
2024-03-15T19:14:33.640Z,11.64
2024-03-15T19:17:02.790Z,11.60
2024-03-15T19:19:31.882Z,11.61
2024-03-15T19:22:01.062Z,11.58
2024-03-15T19:24:30.627Z,11.52
2024-03-15T19:27:02.147Z,11.48
2024-03-15T19:29:31.257Z,11.43
2024-03-15T19:32:00.511Z,11.36
2024-03-15T19:34:29.708Z,11.35
2024-03-15T19:36:59.053Z,11.31
2024-03-15T19:39:28.390Z,11.27
2024-03-15T19:41:57.584Z,11.21
2024-03-15T19:44:27.028Z,11.15
2024-03-15T19:46:56.333Z,11.10
2024-03-15T19:49:25.567Z,11.07
2024-03-15T19:51:54.927Z,11.03
2024-03-15T19:54:24.441Z,11.00
2024-03-15T19:56:55.325Z,10.97
2024-03-15T19:59:25.652Z,10.95
2024-03-15T20:01:55.166Z,10.92
2024-03-15T20:04:25.285Z,10.90
2024-03-15T20:06:55.504Z,10.87
2024-03-15T20:09:25.832Z,10.84
2024-03-15T20:11:55.381Z,10.81
2024-03-15T20:14:26.885Z,10.81
2024-03-15T20:16:57.749Z,10.79
2024-03-15T20:19:30.755Z,10.76
2024-03-15T20:22:04.154Z,10.72
2024-03-15T20:24:33.805Z,10.72
2024-03-15T20:27:03.279Z,10.71
2024-03-15T20:29:32.919Z,10.72
2024-03-15T20:32:02.328Z,10.68
2024-03-15T20:34:31.882Z,10.62
2024-03-15T20:37:01.303Z,10.55
2024-03-15T20:39:32.559Z,10.53
2024-03-15T20:42:14.461Z,10.51
2024-03-15T20:44:48.386Z,10.47
2024-03-15T20:47:19.420Z,10.45
2024-03-15T20:49:50.562Z,10.44
2024-03-15T20:52:20.679Z,10.44
2024-03-15T20:54:52.412Z,10.40
2024-03-15T20:57:21.687Z,10.38
2024-03-15T20:59:51.196Z,10.31
2024-03-15T21:02:20.659Z,10.34
2024-03-15T21:04:50.573Z,10.36
2024-03-15T21:07:20.585Z,10.37
2024-03-15T21:09:49.803Z,10.37
2024-03-15T21:12:19.515Z,10.38
2024-03-15T21:14:48.866Z,10.36
2024-03-15T21:17:18.085Z,10.30
2024-03-15T21:19:50.268Z,10.22
2024-03-15T21:22:20.300Z,10.18
2024-03-15T21:24:50.354Z,10.16
2024-03-15T21:27:21.429Z,10.15
2024-03-15T21:29:50.681Z,10.14
2024-03-15T21:32:20.375Z,10.13
2024-03-15T21:34:50.062Z,10.11
2024-03-15T21:37:19.449Z,10.10
2024-03-15T21:39:48.646Z,10.10
2024-03-15T21:42:18.436Z,10.10
2024-03-15T21:44:47.754Z,10.09
2024-03-15T21:47:18.558Z,10.05
2024-03-15T21:49:51.100Z,10.02
2024-03-15T21:52:21.377Z,10.01
2024-03-15T21:54:51.334Z,10.02
2024-03-15T21:57:20.883Z,10.03
2024-03-15T21:59:50.024Z,10.08
2024-03-15T22:02:19.584Z,10.07
2024-03-15T22:04:49.678Z,10.03
2024-03-15T22:07:18.889Z,9.97
2024-03-15T22:09:48.197Z,9.94
2024-03-15T22:12:17.794Z,9.88
2024-03-15T22:14:47.269Z,9.80
2024-03-15T22:17:16.423Z,9.79
2024-03-15T22:19:45.599Z,9.75
2024-03-15T22:22:15.252Z,9.68
2024-03-15T22:24:44.489Z,9.64
2024-03-15T22:27:15.070Z,9.61
2024-03-15T22:29:45.532Z,9.57
2024-03-15T22:32:14.676Z,9.49
2024-03-15T22:34:43.823Z,9.42
2024-03-15T22:37:13.099Z,9.35
2024-03-15T22:39:42.272Z,9.36
2024-03-15T22:42:11.498Z,9.33
2024-03-15T22:44:42.970Z,9.26
2024-03-15T22:47:12.596Z,9.18
2024-03-15T22:49:41.712Z,9.17
2024-03-15T22:52:10.979Z,9.20
2024-03-15T22:54:40.178Z,9.20
2024-03-15T22:57:10.901Z,9.18
2024-03-15T22:59:40.626Z,9.22
2024-03-15T23:02:09.706Z,9.27
2024-03-15T23:04:38.838Z,9.34
2024-03-15T23:07:08.215Z,9.37
2024-03-15T23:42:50.867Z,9.60
2024-03-15T23:45:20.186Z,9.64
2024-03-15T23:47:49.323Z,9.60
2024-03-15T23:50:18.537Z,9.57
2024-03-15T23:52:47.923Z,9.54
2024-03-15T23:55:17.131Z,9.54
2024-03-15T23:57:46.321Z,9.62
